DW7456 Weather Reports


Display with metric or nautical units.
time (UTC)temp
F
wind
direction
speed
MPH
gust
MPH
rain 1hr
in
rain 24hr
in
rain mn
in
humidity
%
barometer
mb
20200710124830 82 112 0.0 0.0 0.00 0.00 0.00 86 1014.6
20200710123324 81 103 0.0 0.0 0.00 0.00 0.00 88 1014.6
20200710121837 80 108 0.0 0.0 0.00 0.00 0.00 91 1014.7
20200710120330 79 101 0.0 1.0 0.00 0.00 0.00 93 1014.4
20200710114822 78 106 0.0 3.0 0.00 0.00 0.00 94 1014.3
20200710113337 78 98 0.0 0.0 0.00 0.00 0.00 95 1014.3
20200710111829 78 93 0.0 0.0 0.00 0.00 0.00 95 1014.3
20200710110328 77 104 0.0 0.0 0.00 0.00 0.00 95 1014.1
20200710104818 77 110 0.0 0.0 0.00 0.01 0.00 96 1014.0
20200710103330 77 94 0.0 0.0 0.00 0.01 0.00 96 1014.1
20200710101826 77 92 0.0 0.0 0.00 0.01 0.00 95 1014.0
20200710100318 77 91 0.0 0.0 0.00 0.01 0.00 95 1013.8
20200710094835 77 96 0.0 0.0 0.00 0.01 0.00 95 1013.5
20200710093328 77 96 0.0 0.0 0.00 0.01 0.00 95 1013.6
20200710091821 77 96 0.0 0.0 0.00 0.01 0.00 94 1013.4
20200710090333 77 96 0.0 0.0 0.00 0.01 0.00 94 1013.3
20200710084825 77 96 0.0 0.0 0.00 0.01 0.00 94 1013.1
20200710083322 77 96 0.0 0.0 0.00 0.01 0.00 93 1013.0
20200710081834 77 96 0.0 0.0 0.00 0.01 0.00 93 1012.8
20200710080330 77 95 0.0 0.0 0.00 0.01 0.00 93 1012.8
20200710074823 77 92 0.0 0.0 0.00 0.01 0.00 92 1012.8
20200710073318 77 92 0.0 0.0 0.00 0.01 0.00 92 1012.8
20200710071829 77 92 0.0 0.0 0.00 0.01 0.00 91 1012.7
20200710064824 78 92 0.0 0.0 0.00 0.01 0.00 90 1012.8
20200710063317 78 92 0.0 0.0 0.00 0.01 0.00 89 1013.0
20200710061834 78 92 0.0 0.0 0.00 0.01 0.00 89 1013.2
20200710060327 78 95 0.0 0.0 0.00 0.01 0.00 89 1013.4
20200710054823 78 95 0.0 0.0 0.00 0.01 0.00 88 1013.5
20200710053335 79 96 0.0 0.0 0.00 0.01 0.00 88 1013.5
20200710051833 79 96 0.0 0.0 0.00 0.01 0.00 87 1013.6
20200710050323 79 96 0.0 0.0 0.00 0.01 0.00 87 1013.5
20200710044818 79 96 0.0 0.0 0.00 0.01 0.00 86 1013.8
20200710043331 80 96 0.0 0.0 0.00 0.01 0.00 85 1013.8
20200710040327 80 96 0.0 0.0 0.00 0.01 0.00 84 1013.8
20200710034819 80 96 0.0 0.0 0.00 0.01 0.01 83 1013.9
20200710033316 81 95 0.0 0.0 0.00 0.01 0.01 83 1013.6
20200710031829 81 95 0.0 0.0 0.00 0.01 0.01 82 1013.5
20200710030324 81 95 0.0 0.0 0.00 0.01 0.01 82 1013.5
20200710024817 81 92 0.0 0.0 0.00 0.09 0.01 83 1013.4
20200710023328 81 100 0.0 0.0 0.00 0.09 0.01 83 1013.2
20200710021825 81 101 0.0 0.0 0.00 0.09 0.01 84 1013.0
20200710020316 81 104 0.0 0.0 0.00 0.09 0.01 83 1012.9
20200710014832 81 106 0.0 0.0 0.00 0.09 0.01 83 1012.8
20200710013326 81 106 0.0 0.0 0.00 0.09 0.01 83 1012.8
20200710011822 81 104 0.0 0.0 0.00 0.09 0.01 82 1012.7
20200710010336 81 106 0.0 0.0 0.00 0.09 0.01 82 1012.6
20200710004830 82 107 0.0 0.0 0.00 0.09 0.01 81 1012.4
20200710003322 82 115 0.0 1.0 0.00 0.09 0.01 81 1012.4
20200710001838 83 118 0.0 4.0 0.00 0.09 0.01 79 1012.3
20200710000331 85 119 0.0 1.0 0.00 0.09 0.01 76 1012.2
20200709234823 88 92 0.0 0.0 0.00 0.09 0.01 65 1012.0
20200709233319 89 105 0.0 0.0 0.00 0.09 0.01 63 1012.0
20200709231831 90 101 0.0 0.0 0.00 0.09 0.01 62 1012.1
20200709230327 90 108 0.0 0.0 0.00 0.09 0.01 61 1012.1
20200709224819 90 102 0.0 0.0 0.00 0.09 0.01 59 1011.8
20200709223316 91 94 0.0 0.0 0.00 0.09 0.01 59 1011.6
20200709221829 92 102 0.0 0.0 0.00 0.09 0.01 61 1011.4
20200709220319 92 113 0.0 0.0 0.00 0.09 0.01 60 1011.3
20200709214816 91 111 0.0 0.0 0.00 0.21 0.01 62 1011.4
20200709213328 91 108 0.0 0.0 0.00 0.21 0.01 62 1011.8
20200709211825 91 107 0.0 0.0 0.00 0.21 0.01 60 1011.9
20200709210317 91 106 0.0 1.0 0.00 0.21 0.01 61 1012.0
20200709204838 90 106 0.0 1.0 0.00 0.21 0.01 61 1012.1
20200709203326 90 94 0.0 0.0 0.00 0.21 0.01 63 1012.2
20200709201818 89 104 0.0 0.0 0.00 0.21 0.01 65 1012.3
20200709200338 89 108 0.0 0.0 0.00 0.21 0.01 67 1012.2
20200709194824 87 102 0.0 0.0 0.00 0.21 0.01 70 1012.3
20200709193329 85 179 0.0 0.0 0.00 0.21 0.01 72 1012.5
20200709191831 84 91 0.0 0.0 0.00 0.21 0.01 74 1012.6
20200709190326 84 134 0.0 0.0 0.00 0.21 0.01 76 1012.7
20200709184818 86 179 0.0 14.0 0.00 0.21 0.01 72 1012.8
20200709183331 90 98 0.0 2.0 0.00 0.21 0.01 60 1012.5
20200709181829 92 104 0.0 0.0 0.00 0.21 0.01 59 1012.7
20200709180319 92 107 0.0 0.0 0.00 0.21 0.01 59 1012.8
20200709174819 93 102 0.0 0.0 0.00 0.21 0.01 59 1013.0
20200709173331 92 108 0.0 0.0 0.00 0.21 0.01 59 1012.9
20200709171825 92 104 0.0 1.0 0.00 0.21 0.01 62 1013.0
20200709170316 91 109 0.0 0.0 0.00 0.21 0.01 62 1013.3
20200709164833 91 114 0.0 0.0 0.00 0.21 0.01 62 1013.4
20200709163325 90 93 0.0 0.0 0.00 0.21 0.01 65 1013.5
20200709161818 90 98 0.0 0.0 0.00 0.21 0.01 66 1013.7
20200709160334 89 97 0.0 0.0 0.00 0.21 0.01 68 1013.8
20200709154828 89 102 0.0 0.0 0.00 0.21 0.01 68 1013.8
20200709153322 88 168 0.0 0.0 0.00 0.21 0.01 69 1013.8
20200709151836 88 110 0.0 0.0 0.00 0.21 0.01 70 1013.9
20200709150328 87 98 0.0 0.0 0.00 0.21 0.01 73 1013.9
20200709144821 86 100 0.0 0.0 0.00 0.21 0.01 74 1013.9
20200709143325 86 105 0.0 0.0 0.00 0.21 0.01 75 1014.0
20200709141819 85 96 0.0 0.0 0.00 0.21 0.01 77 1014.0
20200709140328 84 101 0.0 0.0 0.00 0.21 0.01 79 1014.0
20200709134825 84 105 0.0 0.0 0.00 0.21 0.01 82 1013.9
20200709133316 83 94 0.0 0.0 0.00 0.21 0.01 85 1013.9
20200709131836 82 101 0.0 0.0 0.00 0.21 0.01 88 1013.8
20200709130325 80 107 0.0 0.0 0.00 0.21 0.01 90 1013.9